PWSweather.com
Personal Weather Stations
Station Observations
RRFWEATHER
Rail Road Flat, Rail Road Flat, CA 95248

Rail Road FlatRail Road Flat, CA 95248

Lat: 38.306238, Lon: -120.514548

Elevation: 2808

Station Type: Davis Vantage Pro2

http://www.railroadflat.org

High Low Average
Temperature 92.6°F33.7°C 69.6°F20.9°C 79.2°F26.2°C
Dew Point 62.0°F16.7°C 53.1°F11.7°C 58.0°F14.4°C
Winds 5.8 mph 9.3 kmh Calm Calm 1.0 mph W1.6 kmh W
Wind Gusts 11.5 mph18.5 kmh -- 2.0 mph3.2 kmh
Humidity 66% 32% 50%
Pressure 29.75 in1007.5 mb 29.65 in1004.1 mb -
Precipitation 0.00 in0.0 mm - -
Hour Temp Dew Point Humidity Winds Wind Gusts Pressure Precip Precip Rate Daily Precip Total
12:00 AM 70.9°F21.6°C 57.7°F14.3°C 63% Calm Calm -- 29.68 in1005.1 mb - 0.00 in0.0 mm 0.00 in0.0 mm
12:10 AM 70.8°F21.6°C 57.6°F14.2°C 63% Calm Calm -- 29.68 in1005.1 mb - 0.00 in0.0 mm 0.00 in0.0 mm
12:15 AM 70.8°F21.6°C 57.6°F14.2°C 63% Calm Calm -- 29.67 in1004.7 mb - 0.00 in0.0 mm 0.00 in0.0 mm
12:20 AM 70.9°F21.6°C 57.7°F14.3°C 63% Calm Calm -- 29.67 in1004.7 mb - 0.00 in0.0 mm 0.00 in0.0 mm
12:25 AM 71.0°F21.7°C 57.8°F14.3°C 63% Calm Calm -- 29.67 in1004.7 mb - 0.00 in0.0 mm 0.00 in0.0 mm
12:30 AM 71.0°F21.7°C 57.8°F14.3°C 63% Calm Calm -- 29.68 in1005.1 mb - 0.00 in0.0 mm 0.00 in0.0 mm
12:35 AM 71.1°F21.7°C 57.9°F14.4°C 63% Calm Calm -- 29.68 in1005.1 mb - 0.00 in0.0 mm 0.00 in0.0 mm
12:40 AM 71.0°F21.7°C 57.8°F14.3°C 63% Calm Calm -- 29.68 in1005.1 mb - 0.00 in0.0 mm 0.00 in0.0 mm
12:45 AM 71.0°F21.7°C 57.7°F14.3°C 63% Calm Calm -- 29.68 in1005.1 mb - 0.00 in0.0 mm 0.00 in0.0 mm
12:50 AM 70.8°F21.6°C 57.6°F14.2°C 63% Calm Calm -- 29.67 in1004.7 mb - 0.00 in0.0 mm 0.00 in0.0 mm
12:55 AM 70.9°F21.6°C 57.6°F14.2°C 63% Calm Calm -- 29.67 in1004.7 mb - 0.00 in0.0 mm 0.00 in0.0 mm
01:00 AM 70.9°F21.6°C 57.7°F14.3°C 63% Calm Calm -- 29.67 in1004.7 mb - 0.00 in0.0 mm 0.00 in0.0 mm
01:10 AM 70.9°F21.6°C 57.7°F14.3°C 63% Calm Calm -- 29.67 in1004.7 mb - 0.00 in0.0 mm 0.00 in0.0 mm
01:15 AM 70.8°F21.6°C 57.6°F14.2°C 63% Calm Calm -- 29.67 in1004.7 mb - 0.00 in0.0 mm 0.00 in0.0 mm
01:20 AM 70.7°F21.5°C 57.5°F14.2°C 63% Calm Calm -- 29.67 in1004.7 mb - 0.00 in0.0 mm 0.00 in0.0 mm
01:25 AM 70.7°F21.5°C 57.5°F14.2°C 63% Calm Calm -- 29.67 in1004.7 mb - 0.00 in0.0 mm 0.00 in0.0 mm
01:30 AM 70.8°F21.6°C 57.6°F14.2°C 63% Calm Calm -- 29.67 in1004.7 mb - 0.00 in0.0 mm 0.00 in0.0 mm
01:35 AM 70.7°F21.5°C 57.5°F14.2°C 63% Calm Calm -- 29.67 in1004.7 mb - 0.00 in0.0 mm 0.00 in0.0 mm
01:40 AM 70.6°F21.4°C 57.4°F14.1°C 63% Calm Calm -- 29.67 in1004.7 mb - 0.00 in0.0 mm 0.00 in0.0 mm
01:45 AM 70.4°F21.3°C 57.2°F14.0°C 63% Calm Calm -- 29.67 in1004.7 mb - 0.00 in0.0 mm 0.00 in0.0 mm
01:50 AM 70.4°F21.3°C 57.2°F14.0°C 63% Calm Calm -- 29.66 in1004.4 mb - 0.00 in0.0 mm 0.00 in0.0 mm
01:55 AM 70.4°F21.3°C 57.6°F14.2°C 64% Calm Calm -- 29.66 in1004.4 mb - 0.00 in0.0 mm 0.00 in0.0 mm
02:00 AM 70.3°F21.3°C 57.1°F13.9°C 63% Calm Calm -- 29.66 in1004.4 mb - 0.00 in0.0 mm 0.00 in0.0 mm
02:10 AM 70.4°F21.3°C 57.2°F14.0°C 63% Calm Calm -- 29.66 in1004.4 mb - 0.00 in0.0 mm 0.00 in0.0 mm
02:15 AM 70.6°F21.4°C 57.4°F14.1°C 63% Calm Calm -- 29.66 in1004.4 mb - 0.00 in0.0 mm 0.00 in0.0 mm
02:20 AM 70.6°F21.4°C 57.4°F14.1°C 63% Calm Calm -- 29.65 in1004.1 mb - 0.00 in0.0 mm 0.00 in0.0 mm
02:25 AM 70.8°F21.6°C 57.6°F14.2°C 63% Calm Calm -- 29.66 in1004.4 mb - 0.00 in0.0 mm 0.00 in0.0 mm
02:30 AM 71.2°F21.8°C 57.5°F14.2°C 62% Calm Calm -- 29.65 in1004.1 mb - 0.00 in0.0 mm 0.00 in0.0 mm
02:35 AM 71.4°F21.9°C 57.7°F14.3°C 62% Calm Calm -- 29.65 in1004.1 mb - 0.00 in0.0 mm 0.00 in0.0 mm
02:40 AM 71.4°F21.9°C 57.7°F14.3°C 62% Calm Calm -- 29.65 in1004.1 mb - 0.00 in0.0 mm 0.00 in0.0 mm
02:45 AM 71.2°F21.8°C 57.6°F14.2°C 62% Calm Calm -- 29.65 in1004.1 mb - 0.00 in0.0 mm 0.00 in0.0 mm
02:50 AM 70.8°F21.6°C 57.5°F14.2°C 63% Calm Calm -- 29.65 in1004.1 mb - 0.00 in0.0 mm 0.00 in0.0 mm
02:55 AM 70.2°F21.2°C 57.4°F14.1°C 64% 2.3 mph WNW3.7 kmh WNW 3.5 mph5.6 kmh 29.65 in1004.1 mb - 0.00 in0.0 mm 0.00 in0.0 mm
03:00 AM 69.6°F20.9°C 57.3°F14.1°C 65% 2.3 mph NW3.7 kmh NW 3.5 mph5.6 kmh 29.66 in1004.4 mb - 0.00 in0.0 mm 0.00 in0.0 mm
03:10 AM 69.6°F20.9°C 57.3°F14.1°C 65% 1.2 mph NW1.9 kmh NW 2.3 mph3.7 kmh 29.66 in1004.4 mb - 0.00 in0.0 mm 0.00 in0.0 mm
03:15 AM 69.9°F21.1°C 57.6°F14.2°C 65% 1.2 mph NW1.9 kmh NW 2.3 mph3.7 kmh 29.65 in1004.1 mb - 0.00 in0.0 mm 0.00 in0.0 mm
03:20 AM 70.1°F21.2°C 57.8°F14.3°C 65% 1.2 mph NW1.9 kmh NW 1.2 mph1.9 kmh 29.66 in1004.4 mb - 0.00 in0.0 mm 0.00 in0.0 mm
03:25 AM 70.3°F21.3°C 57.6°F14.2°C 64% Calm Calm -- 29.66 in1004.4 mb - 0.00 in0.0 mm 0.00 in0.0 mm
03:30 AM 70.4°F21.3°C 57.6°F14.2°C 64% Calm Calm -- 29.65 in1004.1 mb - 0.00 in0.0 mm 0.00 in0.0 mm
03:35 AM 70.4°F21.3°C 57.6°F14.2°C 64% Calm Calm -- 29.65 in1004.1 mb - 0.00 in0.0 mm 0.00 in0.0 mm
03:40 AM 70.4°F21.3°C 57.6°F14.2°C 64% Calm Calm -- 29.65 in1004.1 mb - 0.00 in0.0 mm 0.00 in0.0 mm
03:45 AM 70.5°F21.4°C 57.7°F14.3°C 64% Calm Calm -- 29.66 in1004.4 mb - 0.00 in0.0 mm 0.00 in0.0 mm
03:50 AM 70.6°F21.4°C 57.9°F14.4°C 64% Calm Calm -- 29.65 in1004.1 mb - 0.00 in0.0 mm 0.00 in0.0 mm
03:55 AM 70.7°F21.5°C 57.9°F14.4°C 64% Calm Calm -- 29.65 in1004.1 mb - 0.00 in0.0 mm 0.00 in0.0 mm
04:00 AM 70.8°F21.6°C 58.0°F14.4°C 64% Calm Calm -- 29.66 in1004.4 mb - 0.00 in0.0 mm 0.00 in0.0 mm
04:10 AM 70.8°F21.6°C 58.0°F14.4°C 64% Calm Calm -- 29.65 in1004.1 mb - 0.00 in0.0 mm 0.00 in0.0 mm
04:15 AM 70.9°F21.6°C 57.7°F14.3°C 63% Calm Calm -- 29.65 in1004.1 mb - 0.00 in0.0 mm 0.00 in0.0 mm
04:20 AM 71.0°F21.7°C 57.7°F14.3°C 63% Calm Calm -- 29.65 in1004.1 mb - 0.00 in0.0 mm 0.00 in0.0 mm
04:25 AM 71.1°F21.7°C 57.9°F14.4°C 63% Calm Calm -- 29.65 in1004.1 mb - 0.00 in0.0 mm 0.00 in0.0 mm
04:30 AM 71.2°F21.8°C 57.9°F14.4°C 63% Calm Calm -- 29.65 in1004.1 mb - 0.00 in0.0 mm 0.00 in0.0 mm
04:35 AM 71.2°F21.8°C 57.9°F14.4°C 63% Calm Calm -- 29.65 in1004.1 mb - 0.00 in0.0 mm 0.00 in0.0 mm
04:40 AM 71.2°F21.8°C 57.9°F14.4°C 63% Calm Calm -- 29.65 in1004.1 mb - 0.00 in0.0 mm 0.00 in0.0 mm
04:45 AM 71.2°F21.8°C 58.0°F14.4°C 63% Calm Calm -- 29.65 in1004.1 mb - 0.00 in0.0 mm 0.00 in0.0 mm
04:50 AM 71.2°F21.8°C 57.9°F14.4°C 63% Calm Calm 2.3 mph3.7 kmh 29.65 in1004.1 mb - 0.00 in0.0 mm 0.00 in0.0 mm
04:55 AM 71.1°F21.7°C 57.9°F14.4°C 63% 1.2 mph NW1.9 kmh NW 2.3 mph3.7 kmh 29.65 in1004.1 mb - 0.00 in0.0 mm 0.00 in0.0 mm
05:00 AM 71.1°F21.7°C 57.9°F14.4°C 63% 1.2 mph NW1.9 kmh NW 1.2 mph1.9 kmh 29.66 in1004.4 mb - 0.00 in0.0 mm 0.00 in0.0 mm
05:10 AM 71.1°F21.7°C 57.8°F14.3°C 63% Calm Calm -- 29.66 in1004.4 mb - 0.00 in0.0 mm 0.00 in0.0 mm
05:15 AM 71.1°F21.7°C 57.9°F14.4°C 63% Calm Calm -- 29.66 in1004.4 mb - 0.00 in0.0 mm 0.00 in0.0 mm
05:20 AM 71.2°F21.8°C 58.0°F14.4°C 63% Calm Calm -- 29.66 in1004.4 mb - 0.00 in0.0 mm 0.00 in0.0 mm
05:25 AM 71.3°F21.8°C 57.6°F14.2°C 62% Calm Calm -- 29.66 in1004.4 mb - 0.00 in0.0 mm 0.00 in0.0 mm
05:30 AM 71.5°F21.9°C 57.8°F14.3°C 62% Calm Calm -- 29.66 in1004.4 mb - 0.00 in0.0 mm 0.00 in0.0 mm
05:35 AM 71.6°F22.0°C 57.8°F14.3°C 62% Calm Calm -- 29.66 in1004.4 mb - 0.00 in0.0 mm 0.00 in0.0 mm
05:40 AM 71.6°F22.0°C 57.9°F14.4°C 62% Calm Calm -- 29.66 in1004.4 mb - 0.00 in0.0 mm 0.00 in0.0 mm
05:45 AM 71.5°F21.9°C 57.8°F14.3°C 62% Calm Calm -- 29.66 in1004.4 mb - 0.00 in0.0 mm 0.00 in0.0 mm
05:50 AM 71.5°F21.9°C 57.8°F14.3°C 62% Calm Calm -- 29.66 in1004.4 mb - 0.00 in0.0 mm 0.00 in0.0 mm
05:55 AM 71.5°F21.9°C 57.8°F14.3°C 62% Calm Calm -- 29.67 in1004.7 mb - 0.00 in0.0 mm 0.00 in0.0 mm
06:00 AM 71.5°F21.9°C 57.8°F14.3°C 62% Calm Calm -- 29.67 in1004.7 mb - 0.00 in0.0 mm 0.00 in0.0 mm
06:10 AM 71.4°F21.9°C 57.7°F14.3°C 62% Calm Calm -- 29.68 in1005.1 mb - 0.00 in0.0 mm 0.00 in0.0 mm
06:15 AM 71.3°F21.8°C 57.6°F14.2°C 62% Calm Calm -- 29.68 in1005.1 mb - 0.00 in0.0 mm 0.00 in0.0 mm
06:20 AM 71.3°F21.8°C 58.0°F14.4°C 63% Calm Calm -- 29.68 in1005.1 mb - 0.00 in0.0 mm 0.00 in0.0 mm
06:25 AM 71.2°F21.8°C 58.0°F14.4°C 63% Calm Calm -- 29.68 in1005.1 mb - 0.00 in0.0 mm 0.00 in0.0 mm
06:30 AM 71.0°F21.7°C 57.8°F14.3°C 63% Calm Calm -- 29.68 in1005.1 mb - 0.00 in0.0 mm 0.00 in0.0 mm
06:35 AM 71.0°F21.7°C 57.8°F14.3°C 63% Calm Calm -- 29.68 in1005.1 mb - 0.00 in0.0 mm 0.00 in0.0 mm
06:40 AM 70.9°F21.6°C 57.7°F14.3°C 63% Calm Calm -- 29.68 in1005.1 mb - 0.00 in0.0 mm 0.00 in0.0 mm
06:45 AM 70.9°F21.6°C 58.1°F14.5°C 64% Calm Calm -- 29.68 in1005.1 mb - 0.00 in0.0 mm 0.00 in0.0 mm
06:50 AM 70.8°F21.6°C 58.0°F14.4°C 64% Calm Calm -- 29.68 in1005.1 mb - 0.00 in0.0 mm 0.00 in0.0 mm
06:55 AM 70.8°F21.6°C 58.0°F14.4°C 64% Calm Calm -- 29.68 in1005.1 mb - 0.00 in0.0 mm 0.00 in0.0 mm
07:00 AM 70.8°F21.6°C 58.1°F14.5°C 64% Calm Calm -- 29.68 in1005.1 mb - 0.00 in0.0 mm 0.00 in0.0 mm
07:10 AM 70.9°F21.6°C 58.1°F14.5°C 64% Calm Calm -- 29.68 in1005.1 mb - 0.00 in0.0 mm 0.00 in0.0 mm
07:15 AM 71.0°F21.7°C 58.6°F14.8°C 65% Calm Calm -- 29.68 in1005.1 mb - 0.00 in0.0 mm 0.00 in0.0 mm
07:20 AM 71.1°F21.7°C 58.3°F14.6°C 64% Calm Calm -- 29.69 in1005.4 mb - 0.00 in0.0 mm 0.00 in0.0 mm
07:25 AM 71.5°F21.9°C 58.7°F14.8°C 64% Calm Calm -- 29.69 in1005.4 mb - 0.00 in0.0 mm 0.00 in0.0 mm
07:30 AM 71.9°F22.2°C 59.5°F15.3°C 65% Calm Calm -- 29.69 in1005.4 mb - 0.00 in0.0 mm 0.00 in0.0 mm
07:35 AM 72.4°F22.4°C 59.9°F15.5°C 65% Calm Calm -- 29.70 in1005.8 mb - 0.00 in0.0 mm 0.00 in0.0 mm
07:40 AM 72.8°F22.7°C 59.9°F15.5°C 64% Calm Calm -- 29.70 in1005.8 mb - 0.00 in0.0 mm 0.00 in0.0 mm
07:45 AM 73.0°F22.8°C 59.7°F15.4°C 63% Calm Calm -- 29.70 in1005.8 mb - 0.00 in0.0 mm 0.00 in0.0 mm
07:50 AM 73.4°F23.0°C 60.0°F15.6°C 63% Calm Calm -- 29.70 in1005.8 mb - 0.00 in0.0 mm 0.00 in0.0 mm
07:55 AM 73.5°F23.1°C 60.1°F15.6°C 63% Calm Calm -- 29.70 in1005.8 mb - 0.00 in0.0 mm 0.00 in0.0 mm
08:00 AM 73.6°F23.1°C 60.2°F15.7°C 63% Calm Calm -- 29.70 in1005.8 mb - 0.00 in0.0 mm 0.00 in0.0 mm
08:10 AM 73.8°F23.2°C 60.8°F16.0°C 64% Calm Calm -- 29.70 in1005.8 mb - 0.00 in0.0 mm 0.00 in0.0 mm
08:15 AM 73.8°F23.2°C 61.3°F16.3°C 65% Calm Calm -- 29.70 in1005.8 mb - 0.00 in0.0 mm 0.00 in0.0 mm
08:20 AM 73.9°F23.3°C 61.4°F16.3°C 65% Calm Calm -- 29.70 in1005.8 mb - 0.00 in0.0 mm 0.00 in0.0 mm
08:25 AM 74.1°F23.4°C 62.0°F16.7°C 66% Calm Calm -- 29.70 in1005.8 mb - 0.00 in0.0 mm 0.00 in0.0 mm
08:30 AM 74.3°F23.5°C 61.8°F16.6°C 65% Calm Calm -- 29.70 in1005.8 mb - 0.00 in0.0 mm 0.00 in0.0 mm
08:35 AM 74.6°F23.7°C 61.6°F16.4°C 64% Calm Calm -- 29.70 in1005.8 mb - 0.00 in0.0 mm 0.00 in0.0 mm
08:40 AM 75.0°F23.9°C 62.0°F16.7°C 64% Calm Calm -- 29.70 in1005.8 mb - 0.00 in0.0 mm 0.00 in0.0 mm
08:45 AM 75.5°F24.2°C 62.0°F16.7°C 63% Calm Calm -- 29.70 in1005.8 mb - 0.00 in0.0 mm 0.00 in0.0 mm
08:50 AM 76.2°F24.6°C 61.7°F16.5°C 61% Calm Calm -- 29.70 in1005.8 mb - 0.00 in0.0 mm 0.00 in0.0 mm
08:55 AM 77.0°F25.0°C 61.1°F16.2°C 58% Calm Calm -- 29.70 in1005.8 mb - 0.00 in0.0 mm 0.00 in0.0 mm
09:00 AM 78.5°F25.8°C 60.4°F15.8°C 54% Calm Calm -- 29.70 in1005.8 mb - 0.00 in0.0 mm 0.00 in0.0 mm
09:10 AM 80.3°F26.8°C 59.9°F15.5°C 50% 1.2 mph SSW1.9 kmh SSW 3.5 mph5.6 kmh 29.70 in1005.8 mb - 0.00 in0.0 mm 0.00 in0.0 mm
09:15 AM 80.8°F27.1°C 60.5°F15.8°C 50% 1.2 mph S1.9 kmh S 3.5 mph5.6 kmh 29.71 in1006.1 mb - 0.00 in0.0 mm 0.00 in0.0 mm
09:20 AM 81.2°F27.3°C 59.6°F15.3°C 48% 2.3 mph SE3.7 kmh SE 3.5 mph5.6 kmh 29.71 in1006.1 mb - 0.00 in0.0 mm 0.00 in0.0 mm
09:25 AM 81.4°F27.4°C 59.8°F15.4°C 48% 2.3 mph SSE3.7 kmh SSE 3.5 mph5.6 kmh 29.71 in1006.1 mb - 0.00 in0.0 mm 0.00 in0.0 mm
09:30 AM 81.6°F27.6°C 59.4°F15.2°C 47% 2.3 mph SE3.7 kmh SE 3.5 mph5.6 kmh 29.71 in1006.1 mb - 0.00 in0.0 mm 0.00 in0.0 mm
09:35 AM 81.9°F27.7°C 59.7°F15.4°C 47% 1.2 mph E1.9 kmh E 3.5 mph5.6 kmh 29.71 in1006.1 mb - 0.00 in0.0 mm 0.00 in0.0 mm
09:40 AM 82.4°F28.0°C 60.2°F15.7°C 47% 3.5 mph SSE5.6 kmh SSE 4.6 mph7.4 kmh 29.71 in1006.1 mb - 0.00 in0.0 mm 0.00 in0.0 mm
09:45 AM 82.5°F28.1°C 59.6°F15.3°C 46% 2.3 mph SSE3.7 kmh SSE 3.5 mph5.6 kmh 29.71 in1006.1 mb - 0.00 in0.0 mm 0.00 in0.0 mm
09:50 AM 83.0°F28.3°C 59.5°F15.3°C 45% 1.2 mph E1.9 kmh E 2.3 mph3.7 kmh 29.71 in1006.1 mb - 0.00 in0.0 mm 0.00 in0.0 mm
09:55 AM 83.9°F28.8°C 59.6°F15.3°C 44% 2.3 mph S3.7 kmh S 4.6 mph7.4 kmh 29.71 in1006.1 mb - 0.00 in0.0 mm 0.00 in0.0 mm
10:00 AM 83.9°F28.8°C 59.1°F15.1°C 43% 3.5 mph SE5.6 kmh SE 6.9 mph11.1 kmh 29.71 in1006.1 mb - 0.00 in0.0 mm 0.00 in0.0 mm
10:10 AM 84.3°F29.1°C 59.3°F15.2°C 43% 2.3 mph S3.7 kmh S 3.5 mph5.6 kmh 29.71 in1006.1 mb - 0.00 in0.0 mm 0.00 in0.0 mm
10:15 AM 84.3°F29.1°C 60.0°F15.6°C 44% 2.3 mph S3.7 kmh S 4.6 mph7.4 kmh 29.71 in1006.1 mb - 0.00 in0.0 mm 0.00 in0.0 mm
10:20 AM 84.5°F29.2°C 58.2°F14.6°C 41% 3.5 mph SW5.6 kmh SW 4.6 mph7.4 kmh 29.72 in1006.4 mb - 0.00 in0.0 mm 0.00 in0.0 mm
10:25 AM 84.9°F29.4°C 57.9°F14.4°C 40% 1.2 mph WSW1.9 kmh WSW 2.3 mph3.7 kmh 29.72 in1006.4 mb - 0.00 in0.0 mm 0.00 in0.0 mm
10:30 AM 85.6°F29.8°C 58.5°F14.7°C 40% 1.2 mph WSW1.9 kmh WSW 6.9 mph11.1 kmh 29.72 in1006.4 mb - 0.00 in0.0 mm 0.00 in0.0 mm
10:35 AM 85.7°F29.8°C 54.9°F12.7°C 35% 3.5 mph S5.6 kmh S 4.6 mph7.4 kmh 29.72 in1006.4 mb - 0.00 in0.0 mm 0.00 in0.0 mm
10:40 AM 85.5°F29.7°C 53.1°F11.7°C 33% 3.5 mph SSW5.6 kmh SSW 3.5 mph5.6 kmh 29.72 in1006.4 mb - 0.00 in0.0 mm 0.00 in0.0 mm
10:45 AM 85.4°F29.7°C 54.7°F12.6°C 35% 3.5 mph SE5.6 kmh SE 4.6 mph7.4 kmh 29.72 in1006.4 mb - 0.00 in0.0 mm 0.00 in0.0 mm
10:50 AM 85.5°F29.7°C 57.0°F13.9°C 38% 3.5 mph SE5.6 kmh SE 11.5 mph18.5 kmh 29.72 in1006.4 mb - 0.00 in0.0 mm 0.00 in0.0 mm
10:55 AM 85.2°F29.6°C 56.7°F13.7°C 38% 1.2 mph E1.9 kmh E 6.9 mph11.1 kmh 29.72 in1006.4 mb - 0.00 in0.0 mm 0.00 in0.0 mm
11:00 AM 85.5°F29.7°C 56.2°F13.4°C 37% 2.3 mph S3.7 kmh S 10.4 mph16.7 kmh 29.72 in1006.4 mb - 0.00 in0.0 mm 0.00 in0.0 mm
11:10 AM 86.6°F30.3°C 56.5°F13.6°C 36% 2.3 mph W3.7 kmh W 5.8 mph9.3 kmh 29.72 in1006.4 mb - 0.00 in0.0 mm 0.00 in0.0 mm
11:15 AM 86.8°F30.4°C 57.4°F14.1°C 37% 2.3 mph SSW3.7 kmh SSW 4.6 mph7.4 kmh 29.72 in1006.4 mb - 0.00 in0.0 mm 0.00 in0.0 mm
11:20 AM 87.1°F30.6°C 56.9°F13.8°C 36% 4.6 mph S7.4 kmh S 8.1 mph13.0 kmh 29.72 in1006.4 mb - 0.00 in0.0 mm 0.00 in0.0 mm
11:25 AM 86.5°F30.3°C 57.1°F13.9°C 37% 3.5 mph SSW5.6 kmh SSW 6.9 mph11.1 kmh 29.72 in1006.4 mb - 0.00 in0.0 mm 0.00 in0.0 mm
11:30 AM 87.1°F30.6°C 56.9°F13.8°C 36% 2.3 mph SSW3.7 kmh SSW 3.5 mph5.6 kmh 29.72 in1006.4 mb - 0.00 in0.0 mm 0.00 in0.0 mm
11:35 AM 87.2°F30.7°C 57.0°F13.9°C 36% 3.5 mph SW5.6 kmh SW 5.8 mph9.3 kmh 29.72 in1006.4 mb - 0.00 in0.0 mm 0.00 in0.0 mm
11:40 AM 87.2°F30.7°C 57.8°F14.3°C 37% 4.6 mph SSW7.4 kmh SSW 4.6 mph7.4 kmh 29.72 in1006.4 mb - 0.00 in0.0 mm 0.00 in0.0 mm
11:45 AM 87.1°F30.6°C 57.7°F14.3°C 37% 3.5 mph S5.6 kmh S 6.9 mph11.1 kmh 29.72 in1006.4 mb - 0.00 in0.0 mm 0.00 in0.0 mm
11:50 AM 87.2°F30.7°C 57.8°F14.3°C 37% 2.3 mph WSW3.7 kmh WSW 8.1 mph13.0 kmh 29.72 in1006.4 mb - 0.00 in0.0 mm 0.00 in0.0 mm
11:55 AM 87.1°F30.6°C 57.7°F14.3°C 37% 2.3 mph SW3.7 kmh SW 3.5 mph5.6 kmh 29.72 in1006.4 mb - 0.00 in0.0 mm 0.00 in0.0 mm
12:00 PM 87.4°F30.8°C 57.9°F14.4°C 37% 3.5 mph WSW5.6 kmh WSW 6.9 mph11.1 kmh 29.72 in1006.4 mb - 0.00 in0.0 mm 0.00 in0.0 mm
12:10 PM 87.8°F31.0°C 57.5°F14.2°C 36% 2.3 mph W3.7 kmh W 9.2 mph14.8 kmh 29.73 in1006.8 mb - 0.00 in0.0 mm 0.00 in0.0 mm
12:15 PM 87.9°F31.1°C 57.6°F14.2°C 36% 3.5 mph SW5.6 kmh SW 8.1 mph13.0 kmh 29.72 in1006.4 mb - 0.00 in0.0 mm 0.00 in0.0 mm
12:20 PM 87.9°F31.1°C 57.6°F14.2°C 36% 1.2 mph WSW1.9 kmh WSW 3.5 mph5.6 kmh 29.73 in1006.8 mb - 0.00 in0.0 mm 0.00 in0.0 mm
12:25 PM 88.3°F31.3°C 57.9°F14.4°C 36% Calm Calm 3.5 mph5.6 kmh 29.73 in1006.8 mb - 0.00 in0.0 mm 0.00 in0.0 mm
12:30 PM 88.1°F31.2°C 57.8°F14.3°C 36% 4.6 mph S7.4 kmh S 6.9 mph11.1 kmh 29.72 in1006.4 mb - 0.00 in0.0 mm 0.00 in0.0 mm
12:35 PM 87.6°F30.9°C 57.3°F14.1°C 36% 3.5 mph SSW5.6 kmh SSW 3.5 mph5.6 kmh 29.72 in1006.4 mb - 0.00 in0.0 mm 0.00 in0.0 mm
12:40 PM 87.5°F30.8°C 57.3°F14.1°C 36% 3.5 mph W5.6 kmh W 3.5 mph5.6 kmh 29.72 in1006.4 mb - 0.00 in0.0 mm 0.00 in0.0 mm
12:45 PM 87.6°F30.9°C 57.3°F14.1°C 36% 2.3 mph S3.7 kmh S 6.9 mph11.1 kmh 29.72 in1006.4 mb - 0.00 in0.0 mm 0.00 in0.0 mm
12:50 PM 88.5°F31.4°C 58.9°F14.9°C 37% 2.3 mph NW3.7 kmh NW 3.5 mph5.6 kmh 29.72 in1006.4 mb - 0.00 in0.0 mm 0.00 in0.0 mm
12:55 PM 89.2°F31.8°C 57.9°F14.4°C 35% 2.3 mph SW3.7 kmh SW 3.5 mph5.6 kmh 29.72 in1006.4 mb - 0.00 in0.0 mm 0.00 in0.0 mm
01:00 PM 89.9°F32.2°C 58.6°F14.8°C 35% Calm Calm 3.5 mph5.6 kmh 29.72 in1006.4 mb - 0.00 in0.0 mm 0.00 in0.0 mm
01:10 PM 90.1°F32.3°C 57.9°F14.4°C 34% 5.8 mph S9.3 kmh S 11.5 mph18.5 kmh 29.72 in1006.4 mb - 0.00 in0.0 mm 0.00 in0.0 mm
01:15 PM 89.2°F31.8°C 58.8°F14.9°C 36% 1.2 mph SW1.9 kmh SW 5.8 mph9.3 kmh 29.72 in1006.4 mb - 0.00 in0.0 mm 0.00 in0.0 mm
01:20 PM 89.3°F31.8°C 58.1°F14.5°C 35% 3.5 mph W5.6 kmh W 5.8 mph9.3 kmh 29.72 in1006.4 mb - 0.00 in0.0 mm 0.00 in0.0 mm
01:25 PM 89.9°F32.2°C 58.6°F14.8°C 35% Calm Calm 3.5 mph5.6 kmh 29.72 in1006.4 mb - 0.00 in0.0 mm 0.00 in0.0 mm
01:30 PM 90.3°F32.4°C 59.8°F15.4°C 36% 1.2 mph W1.9 kmh W 3.5 mph5.6 kmh 29.72 in1006.4 mb - 0.00 in0.0 mm 0.00 in0.0 mm
01:35 PM 91.3°F32.9°C 59.0°F15.0°C 34% 1.2 mph WNW1.9 kmh WNW 3.5 mph5.6 kmh 29.72 in1006.4 mb - 0.00 in0.0 mm 0.00 in0.0 mm
01:40 PM 91.6°F33.1°C 58.4°F14.7°C 33% 2.3 mph NW3.7 kmh NW 4.6 mph7.4 kmh 29.71 in1006.1 mb - 0.00 in0.0 mm 0.00 in0.0 mm
01:45 PM 91.1°F32.8°C 58.0°F14.4°C 33% 3.5 mph SSW5.6 kmh SSW 6.9 mph11.1 kmh 29.71 in1006.1 mb - 0.00 in0.0 mm 0.00 in0.0 mm
01:50 PM 90.5°F32.5°C 58.3°F14.6°C 34% 2.3 mph SW3.7 kmh SW 4.6 mph7.4 kmh 29.71 in1006.1 mb - 0.00 in0.0 mm 0.00 in0.0 mm
01:55 PM 91.1°F32.8°C 58.8°F14.9°C 34% 1.2 mph WNW1.9 kmh WNW 8.1 mph13.0 kmh 29.71 in1006.1 mb - 0.00 in0.0 mm 0.00 in0.0 mm
02:00 PM 91.8°F33.2°C 59.4°F15.2°C 34% 1.2 mph W1.9 kmh W 3.5 mph5.6 kmh 29.71 in1006.1 mb - 0.00 in0.0 mm 0.00 in0.0 mm
02:10 PM 91.0°F32.8°C 57.9°F14.4°C 33% 4.6 mph SW7.4 kmh SW 8.1 mph13.0 kmh 29.71 in1006.1 mb - 0.00 in0.0 mm 0.00 in0.0 mm
02:15 PM 89.8°F32.1°C 57.7°F14.3°C 34% 4.6 mph S7.4 kmh S 6.9 mph11.1 kmh 29.70 in1005.8 mb - 0.00 in0.0 mm 0.00 in0.0 mm
02:20 PM 89.7°F32.1°C 58.4°F14.7°C 35% 2.3 mph SW3.7 kmh SW 5.8 mph9.3 kmh 29.70 in1005.8 mb - 0.00 in0.0 mm 0.00 in0.0 mm
02:25 PM 90.0°F32.2°C 57.8°F14.3°C 34% 3.5 mph S5.6 kmh S 8.1 mph13.0 kmh 29.70 in1005.8 mb - 0.00 in0.0 mm 0.00 in0.0 mm
02:30 PM 89.8°F32.1°C 57.7°F14.3°C 34% 2.3 mph SE3.7 kmh SE 4.6 mph7.4 kmh 29.70 in1005.8 mb - 0.00 in0.0 mm 0.00 in0.0 mm
02:35 PM 89.4°F31.9°C 58.1°F14.5°C 35% 4.6 mph S7.4 kmh S 5.8 mph9.3 kmh 29.70 in1005.8 mb - 0.00 in0.0 mm 0.00 in0.0 mm
02:40 PM 89.3°F31.8°C 58.1°F14.5°C 35% 3.5 mph S5.6 kmh S 8.1 mph13.0 kmh 29.70 in1005.8 mb - 0.00 in0.0 mm 0.00 in0.0 mm
02:45 PM 89.8°F32.1°C 57.7°F14.3°C 34% 4.6 mph S7.4 kmh S 9.2 mph14.8 kmh 29.70 in1005.8 mb - 0.00 in0.0 mm 0.00 in0.0 mm
02:50 PM 89.7°F32.1°C 57.6°F14.2°C 34% 4.6 mph W7.4 kmh W 8.1 mph13.0 kmh 29.70 in1005.8 mb - 0.00 in0.0 mm 0.00 in0.0 mm
02:55 PM 90.5°F32.5°C 58.3°F14.6°C 34% 3.5 mph W5.6 kmh W 6.9 mph11.1 kmh 29.70 in1005.8 mb - 0.00 in0.0 mm 0.00 in0.0 mm
03:00 PM 91.6°F33.1°C 58.4°F14.7°C 33% 2.3 mph WSW3.7 kmh WSW 8.1 mph13.0 kmh 29.69 in1005.4 mb - 0.00 in0.0 mm 0.00 in0.0 mm
03:10 PM 92.2°F33.4°C 59.8°F15.4°C 34% Calm Calm 3.5 mph5.6 kmh 29.69 in1005.4 mb - 0.00 in0.0 mm 0.00 in0.0 mm
03:15 PM 92.0°F33.3°C 57.9°F14.4°C 32% 2.3 mph SW3.7 kmh SW 4.6 mph7.4 kmh 29.69 in1005.4 mb - 0.00 in0.0 mm 0.00 in0.0 mm
03:20 PM 91.7°F33.2°C 58.5°F14.7°C 33% 2.3 mph SW3.7 kmh SW 11.5 mph18.5 kmh 29.69 in1005.4 mb - 0.00 in0.0 mm 0.00 in0.0 mm
03:25 PM 91.2°F32.9°C 59.7°F15.4°C 35% 1.2 mph W1.9 kmh W 2.3 mph3.7 kmh 29.69 in1005.4 mb - 0.00 in0.0 mm 0.00 in0.0 mm
03:30 PM 91.5°F33.1°C 58.3°F14.6°C 33% 2.3 mph W3.7 kmh W 5.8 mph9.3 kmh 29.69 in1005.4 mb - 0.00 in0.0 mm 0.00 in0.0 mm
03:35 PM 91.6°F33.1°C 58.4°F14.7°C 33% 2.3 mph W3.7 kmh W 9.2 mph14.8 kmh 29.68 in1005.1 mb - 0.00 in0.0 mm 0.00 in0.0 mm
03:40 PM 91.3°F32.9°C 59.0°F15.0°C 34% 2.3 mph WSW3.7 kmh WSW 4.6 mph7.4 kmh 29.69 in1005.4 mb - 0.00 in0.0 mm 0.00 in0.0 mm
03:45 PM 92.1°F33.4°C 58.9°F14.9°C 33% 2.3 mph SW3.7 kmh SW 3.5 mph5.6 kmh 29.68 in1005.1 mb - 0.00 in0.0 mm 0.00 in0.0 mm
03:50 PM 92.6°F33.7°C 59.3°F15.2°C 33% 1.2 mph WNW1.9 kmh WNW 6.9 mph11.1 kmh 29.68 in1005.1 mb - 0.00 in0.0 mm 0.00 in0.0 mm
03:55 PM 91.9°F33.3°C 58.7°F14.8°C 33% 2.3 mph SW3.7 kmh SW 3.5 mph5.6 kmh 29.68 in1005.1 mb - 0.00 in0.0 mm 0.00 in0.0 mm
04:00 PM 91.7°F33.2°C 58.5°F14.7°C 33% 1.2 mph SW1.9 kmh SW 3.5 mph5.6 kmh 29.68 in1005.1 mb - 0.00 in0.0 mm 0.00 in0.0 mm
04:10 PM 91.2°F32.9°C 58.1°F14.5°C 33% 4.6 mph WSW7.4 kmh WSW 10.4 mph16.7 kmh 29.68 in1005.1 mb - 0.00 in0.0 mm 0.00 in0.0 mm
04:15 PM 90.6°F32.6°C 58.4°F14.7°C 34% 2.3 mph WSW3.7 kmh WSW 5.8 mph9.3 kmh 29.68 in1005.1 mb - 0.00 in0.0 mm 0.00 in0.0 mm
04:20 PM 90.5°F32.5°C 58.3°F14.6°C 34% 3.5 mph SW5.6 kmh SW 5.8 mph9.3 kmh 29.68 in1005.1 mb - 0.00 in0.0 mm 0.00 in0.0 mm
04:25 PM 90.0°F32.2°C 58.7°F14.8°C 35% 2.3 mph SW3.7 kmh SW 3.5 mph5.6 kmh 29.68 in1005.1 mb - 0.00 in0.0 mm 0.00 in0.0 mm
04:30 PM 90.0°F32.2°C 59.5°F15.3°C 36% 1.2 mph SW1.9 kmh SW 3.5 mph5.6 kmh 29.68 in1005.1 mb - 0.00 in0.0 mm 0.00 in0.0 mm
04:35 PM 90.5°F32.5°C 58.3°F14.6°C 34% 4.6 mph W7.4 kmh W 8.1 mph13.0 kmh 29.68 in1005.1 mb - 0.00 in0.0 mm 0.00 in0.0 mm
04:40 PM 90.4°F32.4°C 59.0°F15.0°C 35% 2.3 mph WNW3.7 kmh WNW 6.9 mph11.1 kmh 29.68 in1005.1 mb - 0.00 in0.0 mm 0.00 in0.0 mm
04:45 PM 90.4°F32.4°C 58.2°F14.6°C 34% 1.2 mph W1.9 kmh W 5.8 mph9.3 kmh 29.68 in1005.1 mb - 0.00 in0.0 mm 0.00 in0.0 mm
04:50 PM 90.4°F32.4°C 59.0°F15.0°C 35% 2.3 mph W3.7 kmh W 2.3 mph3.7 kmh 29.68 in1005.1 mb - 0.00 in0.0 mm 0.00 in0.0 mm
04:55 PM 90.7°F32.6°C 59.3°F15.2°C 35% 2.3 mph WSW3.7 kmh WSW 11.5 mph18.5 kmh 29.68 in1005.1 mb - 0.00 in0.0 mm 0.00 in0.0 mm
05:00 PM 90.5°F32.5°C 59.1°F15.1°C 35% 1.2 mph NW1.9 kmh NW 2.3 mph3.7 kmh 29.68 in1005.1 mb - 0.00 in0.0 mm 0.00 in0.0 mm
05:10 PM 91.1°F32.8°C 58.8°F14.9°C 34% 4.6 mph NW7.4 kmh NW 10.4 mph16.7 kmh 29.69 in1005.4 mb - 0.00 in0.0 mm 0.00 in0.0 mm
05:15 PM 90.3°F32.4°C 59.0°F15.0°C 35% 1.2 mph SSW1.9 kmh SSW 3.5 mph5.6 kmh 29.68 in1005.1 mb - 0.00 in0.0 mm 0.00 in0.0 mm
05:20 PM 89.7°F32.1°C 59.2°F15.1°C 36% 2.3 mph WNW3.7 kmh WNW 3.5 mph5.6 kmh 29.68 in1005.1 mb - 0.00 in0.0 mm 0.00 in0.0 mm
05:25 PM 89.5°F31.9°C 59.8°F15.4°C 37% Calm Calm -- 29.68 in1005.1 mb - 0.00 in0.0 mm 0.00 in0.0 mm
05:30 PM 89.7°F32.1°C 59.2°F15.1°C 36% 2.3 mph NW3.7 kmh NW 3.5 mph5.6 kmh 29.68 in1005.1 mb - 0.00 in0.0 mm 0.00 in0.0 mm
05:35 PM 89.6°F32.0°C 59.1°F15.1°C 36% 2.3 mph NW3.7 kmh NW 3.5 mph5.6 kmh 29.68 in1005.1 mb - 0.00 in0.0 mm 0.00 in0.0 mm
05:40 PM 89.0°F31.7°C 59.4°F15.2°C 37% 2.3 mph NW3.7 kmh NW 3.5 mph5.6 kmh 29.68 in1005.1 mb - 0.00 in0.0 mm 0.00 in0.0 mm
05:45 PM 88.7°F31.5°C 58.3°F14.6°C 36% 1.2 mph WNW1.9 kmh WNW 3.5 mph5.6 kmh 29.68 in1005.1 mb - 0.00 in0.0 mm 0.00 in0.0 mm
05:50 PM 88.3°F31.3°C 58.8°F14.9°C 37% 1.2 mph WNW1.9 kmh WNW 8.1 mph13.0 kmh 29.68 in1005.1 mb - 0.00 in0.0 mm 0.00 in0.0 mm
05:55 PM 88.2°F31.2°C 58.6°F14.8°C 37% 1.2 mph W1.9 kmh W 5.8 mph9.3 kmh 29.68 in1005.1 mb - 0.00 in0.0 mm 0.00 in0.0 mm
06:00 PM 87.9°F31.1°C 58.4°F14.7°C 37% 1.2 mph W1.9 kmh W 6.9 mph11.1 kmh 29.68 in1005.1 mb - 0.00 in0.0 mm 0.00 in0.0 mm
06:10 PM 87.5°F30.8°C 58.8°F14.9°C 38% 1.2 mph W1.9 kmh W 3.5 mph5.6 kmh 29.68 in1005.1 mb - 0.00 in0.0 mm 0.00 in0.0 mm
06:15 PM 87.3°F30.7°C 58.6°F14.8°C 38% 1.2 mph WNW1.9 kmh WNW -- 29.68 in1005.1 mb - 0.00 in0.0 mm 0.00 in0.0 mm
06:20 PM 87.0°F30.6°C 58.3°F14.6°C 38% 2.3 mph WNW3.7 kmh WNW 6.9 mph11.1 kmh 29.69 in1005.4 mb - 0.00 in0.0 mm 0.00 in0.0 mm
06:25 PM 86.6°F30.3°C 58.0°F14.4°C 38% 2.3 mph W3.7 kmh W 3.5 mph5.6 kmh 29.68 in1005.1 mb - 0.00 in0.0 mm 0.00 in0.0 mm
06:30 PM 86.5°F30.3°C 57.9°F14.4°C 38% 1.2 mph W1.9 kmh W 3.5 mph5.6 kmh 29.69 in1005.4 mb - 0.00 in0.0 mm 0.00 in0.0 mm
06:35 PM 86.2°F30.1°C 58.3°F14.6°C 39% Calm Calm 3.5 mph5.6 kmh 29.69 in1005.4 mb - 0.00 in0.0 mm 0.00 in0.0 mm
06:40 PM 85.8°F29.9°C 58.0°F14.4°C 39% 1.2 mph W1.9 kmh W 9.2 mph14.8 kmh 29.68 in1005.1 mb - 0.00 in0.0 mm 0.00 in0.0 mm
06:45 PM 85.4°F29.7°C 57.7°F14.3°C 39% Calm Calm 3.5 mph5.6 kmh 29.68 in1005.1 mb - 0.00 in0.0 mm 0.00 in0.0 mm
06:50 PM 85.3°F29.6°C 58.2°F14.6°C 40% Calm Calm 3.5 mph5.6 kmh 29.69 in1005.4 mb - 0.00 in0.0 mm 0.00 in0.0 mm
06:55 PM 85.1°F29.5°C 57.3°F14.1°C 39% Calm Calm -- 29.69 in1005.4 mb - 0.00 in0.0 mm 0.00 in0.0 mm
07:00 PM 84.8°F29.3°C 57.1°F13.9°C 39% Calm Calm 4.6 mph7.4 kmh 29.69 in1005.4 mb - 0.00 in0.0 mm 0.00 in0.0 mm
07:10 PM 83.9°F28.8°C 57.0°F13.9°C 40% Calm Calm -- 29.69 in1005.4 mb - 0.00 in0.0 mm 0.00 in0.0 mm
07:15 PM 83.4°F28.6°C 57.2°F14.0°C 41% Calm Calm -- 29.69 in1005.4 mb - 0.00 in0.0 mm 0.00 in0.0 mm
07:20 PM 83.0°F28.3°C 56.9°F13.8°C 41% 1.2 mph WNW1.9 kmh WNW -- 29.69 in1005.4 mb - 0.00 in0.0 mm 0.00 in0.0 mm
07:25 PM 82.6°F28.1°C 57.2°F14.0°C 42% 1.2 mph W1.9 kmh W 3.5 mph5.6 kmh 29.69 in1005.4 mb - 0.00 in0.0 mm 0.00 in0.0 mm
07:30 PM 82.3°F27.9°C 56.9°F13.8°C 42% Calm Calm 1.2 mph1.9 kmh 29.70 in1005.8 mb - 0.00 in0.0 mm 0.00 in0.0 mm
07:35 PM 82.0°F27.8°C 57.3°F14.1°C 43% Calm Calm -- 29.70 in1005.8 mb - 0.00 in0.0 mm 0.00 in0.0 mm
07:40 PM 81.8°F27.7°C 57.1°F13.9°C 43% Calm Calm -- 29.70 in1005.8 mb - 0.00 in0.0 mm 0.00 in0.0 mm
07:45 PM 81.4°F27.4°C 57.4°F14.1°C 44% Calm Calm -- 29.70 in1005.8 mb - 0.00 in0.0 mm 0.00 in0.0 mm
07:50 PM 81.1°F27.3°C 57.2°F14.0°C 44% Calm Calm -- 29.70 in1005.8 mb - 0.00 in0.0 mm 0.00 in0.0 mm
07:55 PM 80.8°F27.1°C 57.5°F14.2°C 45% Calm Calm -- 29.71 in1006.1 mb - 0.00 in0.0 mm 0.00 in0.0 mm
08:00 PM 80.5°F26.9°C 57.2°F14.0°C 45% Calm Calm -- 29.71 in1006.1 mb - 0.00 in0.0 mm 0.00 in0.0 mm
08:10 PM 79.9°F26.6°C 57.3°F14.1°C 46% Calm Calm -- 29.71 in1006.1 mb - 0.00 in0.0 mm 0.00 in0.0 mm
08:15 PM 79.5°F26.4°C 57.5°F14.2°C 47% Calm Calm -- 29.71 in1006.1 mb - 0.00 in0.0 mm 0.00 in0.0 mm
08:20 PM 79.2°F26.2°C 57.2°F14.0°C 47% Calm Calm -- 29.71 in1006.1 mb - 0.00 in0.0 mm 0.00 in0.0 mm
08:25 PM 78.8°F26.0°C 57.5°F14.2°C 48% Calm Calm -- 29.71 in1006.1 mb - 0.00 in0.0 mm 0.00 in0.0 mm
08:30 PM 78.4°F25.8°C 57.7°F14.3°C 49% Calm Calm -- 29.71 in1006.1 mb - 0.00 in0.0 mm 0.00 in0.0 mm
08:35 PM 78.0°F25.6°C 57.3°F14.1°C 49% Calm Calm -- 29.71 in1006.1 mb - 0.00 in0.0 mm 0.00 in0.0 mm
08:40 PM 77.7°F25.4°C 57.0°F13.9°C 49% Calm Calm -- 29.71 in1006.1 mb - 0.00 in0.0 mm 0.00 in0.0 mm
08:45 PM 77.4°F25.2°C 57.3°F14.1°C 50% Calm Calm -- 29.72 in1006.4 mb - 0.00 in0.0 mm 0.00 in0.0 mm
08:50 PM 77.1°F25.1°C 57.0°F13.9°C 50% Calm Calm -- 29.72 in1006.4 mb - 0.00 in0.0 mm 0.00 in0.0 mm
08:55 PM 76.8°F24.9°C 57.3°F14.1°C 51% Calm Calm -- 29.72 in1006.4 mb - 0.00 in0.0 mm 0.00 in0.0 mm
09:00 PM 76.5°F24.7°C 57.0°F13.9°C 51% Calm Calm -- 29.72 in1006.4 mb - 0.00 in0.0 mm 0.00 in0.0 mm
09:10 PM 75.9°F24.4°C 57.0°F13.9°C 52% Calm Calm -- 29.72 in1006.4 mb - 0.00 in0.0 mm 0.00 in0.0 mm
09:15 PM 75.6°F24.2°C 56.8°F13.8°C 52% Calm Calm -- 29.72 in1006.4 mb - 0.00 in0.0 mm 0.00 in0.0 mm
09:20 PM 75.0°F23.9°C 57.3°F14.1°C 54% Calm Calm -- 29.72 in1006.4 mb - 0.00 in0.0 mm 0.00 in0.0 mm
09:25 PM 74.3°F23.5°C 57.0°F13.9°C 55% Calm Calm -- 29.73 in1006.8 mb - 0.00 in0.0 mm 0.00 in0.0 mm
09:30 PM 73.7°F23.2°C 56.5°F13.6°C 55% Calm Calm -- 29.73 in1006.8 mb - 0.00 in0.0 mm 0.00 in0.0 mm
09:35 PM 73.3°F22.9°C 56.7°F13.7°C 56% Calm Calm -- 29.73 in1006.8 mb - 0.00 in0.0 mm 0.00 in0.0 mm
09:40 PM 73.1°F22.8°C 56.5°F13.6°C 56% Calm Calm -- 29.74 in1007.1 mb - 0.00 in0.0 mm 0.00 in0.0 mm
09:45 PM 73.1°F22.8°C 56.5°F13.6°C 56% Calm Calm -- 29.73 in1006.8 mb - 0.00 in0.0 mm 0.00 in0.0 mm
09:50 PM 73.0°F22.8°C 56.9°F13.8°C 57% Calm Calm -- 29.73 in1006.8 mb - 0.00 in0.0 mm 0.00 in0.0 mm
09:55 PM 73.0°F22.8°C 56.9°F13.8°C 57% Calm Calm -- 29.74 in1007.1 mb - 0.00 in0.0 mm 0.00 in0.0 mm
10:00 PM 72.9°F22.7°C 56.8°F13.8°C 57% Calm Calm -- 29.74 in1007.1 mb - 0.00 in0.0 mm 0.00 in0.0 mm
10:10 PM 72.8°F22.7°C 56.7°F13.7°C 57% Calm Calm -- 29.74 in1007.1 mb - 0.00 in0.0 mm 0.00 in0.0 mm
10:15 PM 72.8°F22.7°C 56.6°F13.7°C 57% Calm Calm -- 29.74 in1007.1 mb - 0.00 in0.0 mm 0.00 in0.0 mm
10:20 PM 72.6°F22.6°C 57.0°F13.9°C 58% Calm Calm -- 29.74 in1007.1 mb - 0.00 in0.0 mm 0.00 in0.0 mm
10:25 PM 72.5°F22.5°C 56.9°F13.8°C 58% Calm Calm -- 29.74 in1007.1 mb - 0.00 in0.0 mm 0.00 in0.0 mm
10:30 PM 72.4°F22.4°C 57.2°F14.0°C 59% Calm Calm -- 29.74 in1007.1 mb - 0.00 in0.0 mm 0.00 in0.0 mm
10:35 PM 72.3°F22.4°C 57.1°F13.9°C 59% Calm Calm -- 29.74 in1007.1 mb - 0.00 in0.0 mm 0.00 in0.0 mm
10:40 PM 72.1°F22.3°C 57.0°F13.9°C 59% Calm Calm -- 29.74 in1007.1 mb - 0.00 in0.0 mm 0.00 in0.0 mm
10:45 PM 72.0°F22.2°C 56.9°F13.8°C 59% Calm Calm -- 29.74 in1007.1 mb - 0.00 in0.0 mm 0.00 in0.0 mm
10:50 PM 72.0°F22.2°C 56.8°F13.8°C 59% Calm Calm -- 29.74 in1007.1 mb - 0.00 in0.0 mm 0.00 in0.0 mm
10:55 PM 71.9°F22.2°C 56.8°F13.8°C 59% Calm Calm -- 29.74 in1007.1 mb - 0.00 in0.0 mm 0.00 in0.0 mm
11:00 PM 71.7°F22.1°C 57.1°F13.9°C 60% Calm Calm -- 29.74 in1007.1 mb - 0.00 in0.0 mm 0.00 in0.0 mm
11:10 PM 71.5°F21.9°C 56.9°F13.8°C 60% Calm Calm -- 29.74 in1007.1 mb - 0.00 in0.0 mm 0.00 in0.0 mm
11:15 PM 71.3°F21.8°C 57.2°F14.0°C 61% Calm Calm -- 29.74 in1007.1 mb - 0.00 in0.0 mm 0.00 in0.0 mm
11:20 PM 71.1°F21.7°C 56.9°F13.8°C 61% Calm Calm -- 29.73 in1006.8 mb - 0.00 in0.0 mm 0.00 in0.0 mm
11:25 PM 70.9°F21.6°C 56.7°F13.7°C 61% Calm Calm -- 29.73 in1006.8 mb - 0.00 in0.0 mm 0.00 in0.0 mm
11:30 PM 70.7°F21.5°C 57.0°F13.9°C 62% Calm Calm -- 29.73 in1006.8 mb - 0.00 in0.0 mm 0.00 in0.0 mm
11:35 PM 70.4°F21.3°C 56.8°F13.8°C 62% Calm Calm -- 29.73 in1006.8 mb - 0.00 in0.0 mm 0.00 in0.0 mm
11:40 PM 70.3°F21.3°C 56.7°F13.7°C 62% Calm Calm -- 29.74 in1007.1 mb - 0.00 in0.0 mm 0.00 in0.0 mm
11:45 PM 70.2°F21.2°C 56.6°F13.7°C 62% Calm Calm -- 29.74 in1007.1 mb - 0.00 in0.0 mm 0.00 in0.0 mm
11:50 PM 70.1°F21.2°C 56.5°F13.6°C 62% Calm Calm -- 29.74 in1007.1 mb - 0.00 in0.0 mm 0.00 in0.0 mm
11:55 PM 70.1°F21.2°C 56.4°F13.6°C 62% Calm Calm -- 29.74 in1007.1 mb - 0.00 in0.0 mm 0.00 in0.0 mm